Latest Weather Observations for Rosslyn Bay Harbour

IDQ60801

Issued at 4:02 pm EST Wednesday 19 December 2018 (issued every 10 minutes, with the page automatically refreshed every 10 minutes)

About weather observations | Map of weather stations | Latest weather observations for QLD | Other Formats
Station Details ID: 033208 Name: ROSSLYN BAY NTC AWS Lat: -23.16 Lon: 150.79 Height: 0.0 m
Data from the previous 72 hours. | See also: Recent months for locations in Queensland
Date/Time
EST
Temp
°C
App
Temp
°C
Dew
Point
°C
Rel
Hum
%
Delta-T
°C
Wind Press
QNH
hPa
Press
MSL
hPa
Rain since
9am
mm
Dir  Spd
km/h
Gust
km/h
Spd
kts
Gust
kts
19/04:00pm 27.1 - - - - S 17 28 9 15 1008.8 1008.8 -
19/03:30pm 27.0 - - - - S 22 32 12 17 1008.7 1008.7 -
19/03:00pm 27.0 - - - - S 22 32 12 17 1008.8 1008.8 -
19/02:30pm 27.1 - - - - S 22 32 12 17 1009.0 1009.0 -
19/02:00pm 27.2 - - - - S 20 32 11 17 1009.4 1009.4 -
19/01:30pm 27.1 - - - - S 20 35 11 19 1009.8 1009.8 -
19/01:00pm 27.2 - - - - S 19 32 10 17 1010.1 1010.1 -
19/12:30pm 27.2 - - - - S 20 35 11 19 1010.4 1010.4 -
19/12:00pm 27.2 - - - - S 20 32 11 17 1010.8 1010.8 -
19/11:30am 27.1 - - - - S 20 32 11 17 1010.9 1010.9 -
19/11:00am 27.0 - - - - S 19 35 10 19 1011.1 1011.1 -
19/10:30am 27.0 - - - - S 19 32 10 17 1011.3 1011.3 -
19/10:00am 26.9 - - - - S 19 32 10 17 1011.4 1011.4 -
19/09:30am 26.6 - - - - S 19 33 10 18 1011.4 1011.4 -
19/09:00am 26.3 - - - - S 20 32 11 17 1011.3 1011.3 -
19/08:30am 26.6 - - - - S 20 32 11 17 1011.1 1011.1 -
19/08:00am 26.4 - - - - S 22 33 12 18 1010.9 1010.9 -
19/07:30am 26.3 - - - - S 22 35 12 19 1010.6 1010.6 -
19/07:00am 26.3 - - - - S 20 32 11 17 1010.4 1010.4 -
19/06:30am 26.2 - - - - S 20 33 11 18 1009.8 1009.8 -
19/06:00am 26.1 - - - - S 20 35 11 19 1009.4 1009.4 -
19/05:30am 26.1 - - - - S 22 32 12 17 1008.9 1008.9 -
19/05:00am 26.0 - - - - S 22 35 12 19 1008.5 1008.5 -
19/04:30am 26.0 - - - - S 22 37 12 20 1008.0 1008.0 -
19/02:30am 25.5 - - - - S 19 33 10 18 1007.7 1007.7 -
19/02:00am 25.3 - - - - S 20 - 11 - - 1007.9 -
19/01:00am 25.2 - - - - S 20 37 11 20 1008.2 1008.2 -
19/12:30am 25.0 - - - - S 13 30 7 16 1008.5 1008.5 -
19/12:00am 24.8 - - - - S 17 44 9 24 1008.5 1008.5 -
 
Date/Time
EST
Temp
°C
App
Temp
°C
Dew
Point
°C
Rel
Hum
%
Delta-T
°C
Wind Press
QNH
hPa
Press
MSL
hPa
Rain since
9am
mm
Dir  Spd
km/h
Gust
km/h
Spd
kts
Gust
kts
18/11:30pm 25.0 - - - - S 19 37 10 20 1008.9 1008.9 -
18/11:00pm 24.8 - - - - S 19 39 10 21 1009.4 1009.4 -
18/10:30pm 25.6 - - - - S 22 37 12 20 1009.4 1009.4 -
18/10:00pm 26.4 - - - - S 20 43 11 23 1009.6 1009.6 -
18/09:30pm 26.5 - - - - S 24 44 13 24 1009.5 1009.5 -
18/09:00pm 26.3 - - - - S 28 46 15 25 1009.2 1009.2 -
18/08:32pm 26.3 - - - - S 28 54 15 29 1009.1 1009.1 -
18/08:30pm 26.3 - - - - S 26 54 14 29 1009.0 1009.0 -
18/08:00pm 26.1 - - - - S 28 50 15 27 1008.6 1008.6 -
18/07:42pm 26.4 - - - - S 28 54 15 29 1008.4 1008.4 -
18/07:30pm 26.5 - - - - S 26 44 14 24 1008.3 1008.3 -
18/07:00pm 27.3 - - - - S 30 56 16 30 1008.0 1008.0 -
18/06:45pm 27.6 - - - - S 28 48 15 26 1007.6 1007.6 -
18/06:30pm 27.4 - - - - S 24 46 13 25 1007.4 1007.4 -
18/06:00pm 27.0 - - - - S 15 28 8 15 1007.1 1007.1 -
18/05:30pm 26.9 - - - - S 20 32 11 17 1006.7 1006.7 -
18/05:00pm 26.8 - - - - S 19 28 10 15 1006.5 1006.5 -
18/04:30pm 26.9 - - - - S 19 30 10 16 1006.2 1006.2 -
18/04:00pm 27.2 - - - - S 20 32 11 17 1006.0 1006.0 -
18/03:30pm 27.1 - - - - S 22 35 12 19 1005.9 1005.9 -
18/03:00pm 26.8 - - - - S 20 32 11 17 1006.0 1006.0 -
18/02:30pm 27.2 - - - - S 22 35 12 19 1006.1 1006.1 -
18/02:00pm 27.3 - - - - S 24 32 13 17 1006.4 1006.4 -
18/01:30pm 27.4 - - - - S 20 33 11 18 1006.6 1006.6 -
18/01:00pm 27.8 - - - - S 19 35 10 19 1007.1 1007.1 -
18/12:30pm 27.5 - - - - S 17 30 9 16 1007.2 1007.2 -
18/12:00pm 27.3 - - - - S 15 28 8 15 1007.4 1007.4 -
18/11:30am 27.2 - - - - S 13 28 7 15 1007.7 1007.7 -
18/11:00am 26.9 - - - - S 19 33 10 18 1007.8 1007.8 -
18/10:30am 26.5 - - - - S 17 39 9 21 1008.0 1008.0 -
18/10:00am 26.4 - - - - S 17 33 9 18 1008.1 1008.1 -
18/09:30am 26.6 - - - - S 13 28 7 15 1008.2 1008.2 -
18/09:00am 26.4 - - - - S 13 30 7 16 1008.1 1008.1 -
18/08:30am 26.2 - - - - S 15 28 8 15 1008.0 1008.0 -
18/08:00am 25.9 - - - - S 13 24 7 13 1007.9 1007.9 -
18/07:30am 25.7 - - - - S 13 28 7 15 1007.8 1007.8 -
18/07:00am 25.4 - - - - S 19 41 10 22 1007.5 1007.5 -
18/06:30am 24.2 - - - - S 19 37 10 20 1007.4 1007.4 -
18/06:00am 25.2 - - - - S 15 30 8 16 1007.0 1007.0 -
18/05:30am 25.1 - - - - S 17 30 9 16 1006.4 1006.4 -
18/05:00am 25.0 - - - - S 13 28 7 15 1006.0 1006.0 -
18/04:30am 24.6 - - - - S 17 35 9 19 1005.7 1005.7 -
18/04:00am 24.8 - - - - S 13 28 7 15 1005.3 1005.3 -
18/03:30am 24.8 - - - - S 17 37 9 20 1005.1 1005.1 -
18/03:00am 25.1 - - - - S 13 32 7 17 1004.9 1004.9 -
18/02:30am 25.0 - - - - S 13 26 7 14 1005.0 1005.0 -
18/02:00am 25.2 - - - - S 19 37 10 20 1005.1 1005.1 -
18/01:30am 25.3 - - - - S 15 39 8 21 1005.2 1005.2 -
18/01:00am 25.2 - - - - S 15 46 8 25 1005.4 1005.4 -
18/12:30am 25.3 - - - - S 19 37 10 20 1005.8 1005.8 -
18/12:00am 25.5 - - - - S 19 35 10 19 1006.2 1006.2 -
 
Date/Time
EST
Temp
°C
App
Temp
°C
Dew
Point
°C
Rel
Hum
%
Delta-T
°C
Wind Press
QNH
hPa
Press
MSL
hPa
Rain since
9am
mm
Dir  Spd
km/h
Gust
km/h
Spd
kts
Gust
kts
17/11:30pm 25.5 - - - - S 22 39 12 21 1006.5 1006.5 -
17/11:00pm 25.6 - - - - S 22 41 12 22 1006.6 1006.6 -
17/10:30pm 25.6 - - - - S 28 54 15 29 1006.7 1006.7 -
17/10:05pm 25.7 - - - - S 28 48 15 26 1006.8 1006.8 -
17/10:00pm 25.6 - - - - S 26 46 14 25 1006.7 1006.7 -
17/09:30pm 25.8 - - - - S 24 43 13 23 1006.7 1006.7 -
17/09:09pm 26.0 - - - - S 28 50 15 27 1006.4 1006.4 -
17/09:00pm 25.9 - - - - S 26 46 14 25 1006.4 1006.4 -
17/08:35pm 26.0 - - - - S 28 50 15 27 1006.2 1006.2 -
17/08:30pm 26.0 - - - - S 26 44 14 24 1006.1 1006.1 -
17/08:00pm 26.1 - - - - S 26 48 14 26 1005.7 1005.7 -
17/07:51pm 26.0 - - - - S 28 48 15 26 1005.6 1005.6 -
17/07:30pm 26.1 - - - - S 30 44 16 24 1005.3 1005.3 -
17/07:00pm 26.0 - - - - S 30 44 16 24 1004.8 1004.8 -
17/06:38pm 26.0 - - - - S 30 50 16 27 1004.5 1004.5 -
17/06:30pm 26.1 - - - - S 30 43 16 23 1004.5 1004.5 -
17/06:00pm 26.2 - - - - S 26 43 14 23 1004.1 1004.1 -
17/05:33pm 26.2 - - - - S 28 54 15 29 1003.7 1003.7 -
17/05:30pm 26.2 - - - - S 26 50 14 27 1003.8 1003.8 -
17/05:00pm 26.5 - - - - S 32 52 17 28 1003.3 1003.3 -
17/04:30pm 26.4 - - - - S 30 54 16 29 1003.2 1003.2 -
17/04:00pm 26.1 - - - - S 33 56 18 30 1002.9 1002.9 -
17/03:30pm 26.3 - - - - S 28 50 15 27 1003.2 1003.2 -
17/03:00pm 26.2 - - - - S 28 50 15 27 1003.5 1003.5 -
17/02:30pm 26.2 - - - - S 30 54 16 29 1003.8 1003.8 -
17/02:00pm 25.9 - - - - S 32 56 17 30 1004.3 1004.3 -
17/01:30pm 26.1 - - - - S 32 50 17 27 1004.5 1004.5 -
17/01:00pm 26.0 - - - - S 30 56 16 30 1004.8 1004.8 -
17/12:46pm 25.9 - - - - S 28 46 15 25 1004.8 1004.8 -
17/12:30pm 25.9 - - - - S 26 46 14 25 1004.9 1004.9 -
17/12:00pm 25.7 - - - - S 28 50 15 27 1005.0 1005.0 -
17/11:53am 25.7 - - - - S 28 48 15 26 1005.0 1005.0 -
17/11:30am 25.8 - - - - S 24 43 13 23 1005.0 1005.0 -
17/11:00am 25.6 - - - - S 24 44 13 24 1005.1 1005.1 -
17/10:41am 25.1 - - - - S 28 46 15 25 1004.9 1004.9 -
17/10:30am 25.6 - - - - S 22 39 12 21 1005.2 1005.2 -
17/10:03am 25.3 - - - - S 28 48 15 26 1004.9 1004.9 -
17/10:00am 25.1 - - - - S 26 46 14 25 1004.9 1004.9 -
17/09:30am 25.4 - - - - S 24 43 13 23 1005.2 1005.2 -
17/09:00am 25.8 - - - - S 22 37 12 20 1005.3 1005.3 -
17/08:30am 25.5 - - - - S 19 35 10 19 1005.4 1005.4 -
17/08:00am 25.0 - - - - S 22 37 12 20 1005.7 1005.7 -
17/07:30am 24.9 - - - - S 22 41 12 22 1005.7 1005.7 -
17/07:00am 25.0 - - - - S 20 33 11 18 1005.4 1005.4 -
17/06:30am 24.7 - - - - S 19 35 10 19 1005.1 1005.1 -
17/06:00am 24.7 - - - - S 22 33 12 18 1004.9 1004.9 -
17/05:30am 25.1 - - - - S 19 32 10 17 1004.5 1004.5 -
17/05:00am 25.3 - - - - S 15 26 8 14 1004.1 1004.1 -
17/04:30am 25.2 - - - - SW 7 20 4 11 1003.8 1003.8 -
17/04:00am 25.1 - - - - S 9 24 5 13 1003.6 1003.6 -
17/03:30am 24.9 - - - - SSW 11 22 6 12 1003.5 1003.5 -
17/03:00am 24.3 - - - - S 17 32 9 17 1003.7 1003.7 -
17/02:30am 24.9 - - - - S 17 26 9 14 1003.9 1003.9 -
17/02:00am 25.4 - - - - S 20 33 11 18 1004.1 1004.1 -
17/01:30am 25.5 - - - - S 15 30 8 16 1004.2 1004.2 -
17/01:00am 25.5 - - - - S 15 26 8 14 1004.5 1004.5 -
17/12:30am 25.1 - - - - S 19 35 10 19 1004.9 1004.9 -
17/12:00am 25.5 - - - - S 17 26 9 14 1005.2 1005.2 -
 
Date/Time
EST
Temp
°C
App
Temp
°C
Dew
Point
°C
Rel
Hum
%
Delta-T
°C
Wind Press
QNH
hPa
Press
MSL
hPa
Rain since
9am
mm
Dir  Spd
km/h
Gust
km/h
Spd
kts
Gust
kts
16/11:30pm 25.2 - - - - S 13 22 7 12 1005.6 1005.6 -
16/11:00pm 25.1 - - - - S 9 20 5 11 1005.9 1005.9 -
16/10:30pm 25.4 - - - - S 9 22 5 12 1005.9 1005.9 -
16/10:00pm 25.4 - - - - S 13 22 7 12 1006.3 1006.3 -
16/09:30pm 25.2 - - - - S 9 20 5 11 1006.5 1006.5 -
16/09:00pm 25.1 - - - - S 13 20 7 11 1006.3 1006.3 -
16/08:30pm 24.8 - - - - S 13 26 7 14 1006.1 1006.1 -
16/08:00pm 24.5 - - - - S 11 19 6 10 1006.3 1006.3 -
16/07:30pm 24.3 - - - - S 9 15 5 8 1006.4 1006.4 -
16/07:00pm 23.6 - - - - SSW 2 6 1 3 1006.3 1006.3 -
16/06:30pm 23.8 - - - - S 6 13 3 7 1006.0 1006.0 -
16/06:00pm 23.9 - - - - S 6 13 3 7 1006.2 1006.2 -
16/05:30pm 23.7 - - - - S 11 24 6 13 1006.0 1006.0 -
16/05:00pm 23.5 - - - - S 15 28 8 15 1005.7 1005.7 -
16/04:30pm 23.2 - - - - S 15 28 8 15 1005.5 1005.5 -

Other Formats:

Comma delimited format used in spreadsheet applications
http://www.bom.gov.au/fwo/IDQ60801/IDQ60801.95298.axf

JavaScript Object Notation format (JSON) in row-major order
http://www.bom.gov.au/fwo/IDQ60801/IDQ60801.95298.json